Time;durP1;ratioP1;P1;durP2;ratioP2;P2;SDS_P1;SDS_P2;PMS_P1;PMS_P2;Temp;Humidity;BMP_temperature;BMP_pressure;BME280_temperature;BME280_humidity;BME280_pressure;Samples;Min_cycle;Max_cycle;Signal;HPM_P1;HPM_P2
2021/01/03 00:01:43;;;;;;;38.53;25.30;;;6.20;99.90;;;;;;5081631;28;20465;-73
2021/01/03 00:04:09;;;;;;;37.43;24.70;;;6.30;99.90;;;;;;5105576;28;20927;-73
2021/01/03 00:06:34;;;;;;;37.20;25.40;;;6.10;99.90;;;;;;5089645;28;20188;-73
2021/01/03 00:09:00;;;;;;;36.43;26.03;;;6.10;99.90;;;;;;5091561;28;20196;-73
2021/01/03 00:11:26;;;;;;;35.60;24.80;;;6.10;99.90;;;;;;5072689;28;20693;-73
2021/01/03 00:13:52;;;;;;;36.33;26.03;;;6.20;99.90;;;;;;5089979;28;20643;-73
2021/01/03 00:16:17;;;;;;;37.10;25.10;;;6.00;99.90;;;;;;5090427;28;20239;-73
2021/01/03 00:18:43;;;;;;;35.93;24.87;;;6.20;99.90;;;;;;5073170;28;20540;-73
2021/01/03 00:21:10;;;;;;;35.80;25.17;;;5.90;99.90;;;;;;5090556;28;20207;-73
2021/01/03 00:23:36;;;;;;;38.47;26.57;;;5.80;99.90;;;;;;5090631;28;20208;-73
2021/01/03 00:26:03;;;;;;;36.37;24.10;;;6.00;99.90;;;;;;5089916;28;20418;-73
2021/01/03 00:28:28;;;;;;;39.77;26.90;;;6.00;99.90;;;;;;5091262;28;20184;-73
2021/01/03 00:30:54;;;;;;;40.37;27.50;;;6.00;99.90;;;;;;5089485;28;20437;-74
2021/01/03 00:33:20;;;;;;;37.10;25.03;;;5.90;99.90;;;;;;5089438;28;20190;-73
2021/01/03 00:35:46;;;;;;;38.83;26.07;;;5.80;99.90;;;;;;5089818;28;20527;-73
2021/01/03 00:38:12;;;;;;;38.57;25.27;;;5.70;99.90;;;;;;5089871;28;20426;-73
2021/01/03 00:40:39;;;;;;;39.77;26.90;;;5.80;99.90;;;;;;5091138;28;20681;-74
2021/01/03 00:43:07;;;;;;;42.10;26.53;;;5.70;99.90;;;;;;5090437;28;21073;-74
2021/01/03 00:45:34;;;;;;;37.57;25.20;;;5.70;99.90;;;;;;5090899;28;20509;-73
2021/01/03 00:47:59;;;;;;;38.40;24.67;;;5.50;99.90;;;;;;5090954;28;20410;-74
2021/01/03 00:50:26;;;;;;;32.47;22.40;;;5.70;99.90;;;;;;5088470;28;20419;-74
2021/01/03 00:52:52;;;;;;;36.33;25.00;;;5.80;99.90;;;;;;5090285;28;20190;-74
2021/01/03 00:55:18;;;;;;;38.47;25.03;;;5.70;99.90;;;;;;5090344;28;20411;-74
2021/01/03 00:57:43;;;;;;;39.10;25.00;;;5.60;99.90;;;;;;5072323;28;20233;-74
2021/01/03 01:00:17;;;;;;;39.43;25.10;;;5.60;99.90;;;;;;5072344;28;20499;-73
2021/01/03 01:02:43;;;;;;;37.90;25.80;;;5.60;99.90;;;;;;5089043;28;20844;-73
2021/01/03 01:05:10;;;;;;;35.57;24.37;;;5.70;99.90;;;;;;5089656;28;20551;-74
2021/01/03 01:07:35;;;;;;;34.47;24.33;;;5.40;99.90;;;;;;5089159;28;20673;-73
2021/01/03 01:10:01;;;;;;;40.03;26.70;;;5.50;99.90;;;;;;5089338;28;20415;-73
2021/01/03 01:12:27;;;;;;;38.20;24.57;;;5.40;99.90;;;;;;5090416;28;20191;-73
2021/01/03 01:14:52;;;;;;;39.70;26.10;;;5.60;99.90;;;;;;5090168;28;20188;-73
2021/01/03 01:17:18;;;;;;;37.23;24.43;;;5.60;99.90;;;;;;5090333;28;20377;-73
2021/01/03 01:19:44;;;;;;;35.63;23.37;;;5.50;99.90;;;;;;5089049;28;20195;-73
2021/01/03 01:22:10;;;;;;;36.27;24.37;;;5.60;99.90;;;;;;5088757;28;20231;-73
2021/01/03 01:24:35;;;;;;;38.53;25.00;;;5.60;99.90;;;;;;5088181;28;20238;-74
2021/01/03 01:27:01;;;;;;;38.80;25.80;;;5.30;99.90;;;;;;5088991;28;20414;-73
2021/01/03 01:29:26;;;;;;;44.47;25.97;;;5.30;99.90;;;;;;5089912;28;20176;-73
2021/01/03 01:31:52;;;;;;;38.43;25.13;;;5.10;99.90;;;;;;5070143;28;20264;-73
2021/01/03 01:34:18;;;;;;;39.00;24.87;;;5.30;99.90;;;;;;5088084;28;20204;-73
2021/01/03 01:36:44;;;;;;;43.73;25.57;;;5.40;99.90;;;;;;5088638;28;20196;-73
2021/01/03 01:39:09;;;;;;;40.17;25.50;;;5.40;99.90;;;;;;5089657;28;20181;-73
2021/01/03 01:41:35;;;;;;;36.90;24.87;;;5.20;99.90;;;;;;5071844;28;20960;-73
2021/01/03 01:44:02;;;;;;;41.70;26.50;;;5.30;99.90;;;;;;5071036;28;20538;-73
2021/01/03 01:46:42;;;;;;;41.90;25.50;;;5.10;99.90;;;;;;5089868;28;20259;-73
2021/01/03 01:49:12;;;;;;;40.50;24.87;;;5.20;99.90;;;;;;5076212;28;20566;-73
2021/01/03 01:51:43;;;;;;;41.00;25.83;;;5.10;99.90;;;;;;5088170;28;20422;-73
2021/01/03 01:54:18;;;;;;;41.10;24.60;;;4.90;99.90;;;;;;5087794;28;20415;-73
2021/01/03 01:56:55;;;;;;;38.17;24.73;;;5.10;99.90;;;;;;5088250;28;20517;-73
2021/01/03 01:59:45;;;;;;;39.83;25.60;;;4.90;99.90;;;;;;5089506;28;20918;-73
2021/01/03 02:02:16;;;;;;;40.30;25.00;;;5.10;99.90;;;;;;5089486;28;20454;-73
2021/01/03 02:04:52;;;;;;;36.17;23.30;;;5.00;99.90;;;;;;5088585;28;20427;-73
2021/01/03 02:07:42;;;;;;;36.20;24.03;;;4.80;99.90;;;;;;5087992;28;20410;-73
2021/01/03 02:10:34;;;;;;;40.60;25.57;;;5.10;99.90;;;;;;5089500;28;20426;-73
2021/01/03 02:13:23;;;;;;;39.77;24.10;;;4.90;99.90;;;;;;5089025;28;20416;-73
2021/01/03 02:15:52;;;;;;;34.27;22.57;;;5.10;99.90;;;;;;5086904;28;20828;-73
2021/01/03 02:18:18;;;;;;;34.20;22.20;;;5.00;99.90;;;;;;5089406;28;20421;-73
2021/01/03 02:21:02;;;;;;;36.07;24.37;;;4.90;99.90;;;;;;5088980;28;20464;-73
2021/01/03 02:23:54;;;;;;;34.00;22.83;;;5.00;99.90;;;;;;5087418;28;20528;-73
2021/01/03 02:26:23;;;;;;;34.60;23.40;;;4.90;99.90;;;;;;5074681;28;20414;-73
2021/01/03 02:28:50;;;;;;;38.00;24.37;;;4.90;99.90;;;;;;5088837;28;20410;-73
2021/01/03 02:31:23;;;;;;;37.30;23.57;;;4.90;99.90;;;;;;5086051;28;20414;-73
2021/01/03 02:33:51;;;;;;;34.53;23.00;;;4.90;99.90;;;;;;5088367;28;20421;-73
2021/01/03 02:36:28;;;;;;;35.10;22.83;;;5.00;99.90;;;;;;5087787;28;20958;-73
2021/01/03 02:39:29;;;;;;;34.63;24.07;;;4.80;99.90;;;;;;5087595;28;20509;-73
2021/01/03 02:42:10;;;;;;;37.63;23.57;;;5.00;99.90;;;;;;5088564;28;20543;-73
2021/01/03 02:44:35;;;;;;;35.40;22.37;;;4.60;99.90;;;;;;5069972;28;20505;-73
2021/01/03 02:47:01;;;;;;;36.40;24.70;;;4.80;99.90;;;;;;5069968;28;20510;-74
2021/01/03 02:49:27;;;;;;;33.97;22.70;;;4.50;99.90;;;;;;5070385;28;20257;-73
2021/01/03 02:51:53;;;;;;;35.90;22.50;;;4.60;99.90;;;;;;5086991;28;20192;-73
2021/01/03 02:54:18;;;;;;;30.27;21.00;;;4.60;99.90;;;;;;5069766;28;20291;-73
2021/01/03 02:56:45;;;;;;;37.40;25.10;;;4.60;99.90;;;;;;5086940;28;20467;-73
2021/01/03 02:59:11;;;;;;;33.60;22.27;;;4.70;99.90;;;;;;5087019;28;20659;-73
2021/01/03 03:01:36;;;;;;;38.63;23.17;;;4.90;99.90;;;;;;5088203;28;20454;-73
2021/01/03 03:04:02;;;;;;;34.60;21.07;;;4.80;99.90;;;;;;5088087;28;20184;-73
2021/01/03 03:06:28;;;;;;;39.67;24.87;;;5.00;99.90;;;;;;5086951;28;20208;-73
2021/01/03 03:08:53;;;;;;;35.07;23.30;;;4.70;99.90;;;;;;5070396;28;20946;-74
2021/01/03 03:11:19;;;;;;;37.17;23.77;;;4.80;99.90;;;;;;5088413;28;20822;-73
2021/01/03 03:13:45;;;;;;;36.23;23.60;;;4.80;99.90;;;;;;5086487;28;20626;-73
2021/01/03 03:16:10;;;;;;;38.30;25.00;;;4.80;99.90;;;;;;5086606;28;20307;-72
2021/01/03 03:18:36;;;;;;;34.57;21.57;;;4.70;99.90;;;;;;5070215;28;20731;-72
2021/01/03 03:21:02;;;;;;;35.50;22.20;;;4.80;99.90;;;;;;5070019;28;20208;-72
2021/01/03 03:23:27;;;;;;;31.47;21.10;;;4.50;99.90;;;;;;5069444;28;20180;-72
2021/01/03 03:25:53;;;;;;;37.33;22.43;;;4.60;99.90;;;;;;5070086;28;20188;-72
2021/01/03 03:28:19;;;;;;;33.20;21.43;;;4.70;99.90;;;;;;5087798;28;20609;-72
2021/01/03 03:30:46;;;;;;;32.53;21.63;;;4.60;99.90;;;;;;5089457;28;20218;-72
2021/01/03 03:33:11;;;;;;;30.90;21.40;;;4.70;99.90;;;;;;5091718;28;20189;-72
2021/01/03 03:35:37;;;;;;;34.40;21.67;;;4.60;99.90;;;;;;5092364;28;20756;-72
2021/01/03 03:38:06;;;;;;;29.50;20.43;;;4.60;99.90;;;;;;5092185;28;20200;-72
2021/01/03 03:40:33;;;;;;;27.43;19.70;;;4.40;99.90;;;;;;5092268;28;20437;-72
2021/01/03 03:42:59;;;;;;;29.33;19.23;;;4.70;99.90;;;;;;5090258;28;20425;-72
2021/01/03 03:45:25;;;;;;;28.77;18.60;;;4.50;99.90;;;;;;5090503;28;20410;-72
2021/01/03 03:47:51;;;;;;;28.50;18.47;;;4.70;99.90;;;;;;5090602;28;20430;-72
2021/01/03 03:50:20;;;;;;;27.77;19.13;;;4.80;99.90;;;;;;5090589;28;20418;-72
2021/01/03 03:52:46;;;;;;;29.70;18.23;;;4.70;99.90;;;;;;5090613;28;20623;-72
2021/01/03 03:55:13;;;;;;;25.60;18.03;;;4.50;99.90;;;;;;5091419;28;20425;-72
2021/01/03 03:57:39;;;;;;;27.10;18.23;;;4.30;99.90;;;;;;5090425;28;20406;-72
2021/01/03 04:00:14;;;;;;;23.37;16.47;;;4.40;99.90;;;;;;5090509;28;20429;-72
2021/01/03 04:02:41;;;;;;;27.93;17.60;;;4.40;99.90;;;;;;5073475;28;20560;-72
2021/01/03 04:05:09;;;;;;;28.43;18.20;;;4.40;99.90;;;;;;5056047;28;20414;-72
2021/01/03 04:07:35;;;;;;;29.17;17.93;;;4.20;99.90;;;;;;5090545;28;20518;-72
2021/01/03 04:10:04;;;;;;;24.17;16.73;;;4.30;99.90;;;;;;5091669;28;20506;-72
2021/01/03 04:12:33;;;;;;;28.50;17.37;;;4.40;99.90;;;;;;5091518;28;20567;-73
2021/01/03 04:14:58;;;;;;;24.57;16.57;;;4.20;99.90;;;;;;5090736;28;20426;-72
2021/01/03 04:17:24;;;;;;;28.20;18.67;;;4.30;99.90;;;;;;5073241;28;20940;-72
2021/01/03 04:19:49;;;;;;;27.30;18.57;;;4.30;99.90;;;;;;5090216;28;20529;-72
2021/01/03 04:22:15;;;;;;;28.07;17.80;;;4.20;99.90;;;;;;5090068;28;20312;-72
2021/01/03 04:24:41;;;;;;;23.93;17.00;;;4.40;99.90;;;;;;5090681;28;20208;-72
2021/01/03 04:27:08;;;;;;;33.67;18.50;;;4.50;99.90;;;;;;5072897;28;20583;-72
2021/01/03 04:29:36;;;;;;;27.40;18.07;;;4.50;99.90;;;;;;5091288;28;20259;-72
2021/01/03 04:32:07;;;;;;;30.90;19.73;;;4.20;99.90;;;;;;5088260;28;21128;-72
2021/01/03 04:34:35;;;;;;;31.47;19.40;;;4.30;99.90;;;;;;5089129;28;20414;-72
2021/01/03 04:37:01;;;;;;;30.50;19.07;;;4.30;99.90;;;;;;5091015;28;20461;-72
2021/01/03 04:39:29;;;;;;;26.97;17.90;;;4.30;99.90;;;;;;5072048;28;20904;-72
2021/01/03 04:42:05;;;;;;;30.93;18.67;;;4.40;99.90;;;;;;5089757;28;21136;-72
2021/01/03 04:44:50;;;;;;;27.23;18.67;;;4.50;99.90;;;;;;5072173;28;20426;-72
2021/01/03 04:47:30;;;;;;;28.80;20.20;;;4.60;99.90;;;;;;5089779;28;20930;-72
2021/01/03 04:50:02;;;;;;;26.80;18.57;;;4.30;99.90;;;;;;5090467;28;20471;-72
2021/01/03 04:52:56;;;;;;;31.17;19.73;;;4.30;99.90;;;;;;5089383;28;20933;-72
2021/01/03 04:55:30;;;;;;;26.50;18.37;;;4.30;99.90;;;;;;5090671;28;20410;-72
2021/01/03 04:58:20;;;;;;;28.27;19.00;;;4.20;99.90;;;;;;5091096;28;21193;-72
2021/01/03 05:01:16;;;;;;;30.47;19.57;;;4.30;99.90;;;;;;5080512;28;20473;-72
2021/01/03 05:04:18;;;;;;;29.20;17.73;;;4.50;99.90;;;;;;5090627;28;20909;-72
2021/01/03 05:06:51;;;;;;;26.37;17.83;;;4.50;99.90;;;;;;5034170;28;20471;-72
2021/01/03 05:09:17;;;;;;;28.57;18.97;;;4.30;99.90;;;;;;5066273;28;20897;-72
2021/01/03 05:12:02;;;;;;;28.00;17.97;;;4.40;99.90;;;;;;5089807;28;20426;-72
2021/01/03 05:14:53;;;;;;;31.27;18.33;;;4.20;99.90;;;;;;5090439;28;20180;-72
2021/01/03 05:17:21;;;;;;;27.13;17.10;;;4.50;99.90;;;;;;5072946;28;20439;-72
2021/01/03 05:19:47;;;;;;;24.10;16.67;;;4.30;99.90;;;;;;5089870;28;20928;-72
2021/01/03 05:22:26;;;;;;;28.07;18.50;;;4.40;99.90;;;;;;5089069;28;20457;-72
2021/01/03 05:24:55;;;;;;;27.43;17.20;;;4.30;99.90;;;;;;5076653;28;20172;-72
2021/01/03 05:27:20;;;;;;;23.80;17.07;;;4.30;99.90;;;;;;5088671;28;20413;-72
2021/01/03 05:29:47;;;;;;;23.27;15.63;;;4.40;99.90;;;;;;5090476;28;20410;-72
2021/01/03 05:32:24;;;;;;;24.30;16.80;;;4.40;99.90;;;;;;5088463;28;20664;-72
2021/01/03 05:34:49;;;;;;;28.70;16.43;;;4.40;99.90;;;;;;5088252;28;20883;-72
2021/01/03 05:37:22;;;;;;;25.47;16.30;;;4.40;99.90;;;;;;5088506;28;20491;-72
2021/01/03 05:39:48;;;;;;;21.90;14.93;;;4.50;99.90;;;;;;5089806;28;20190;-72
2021/01/03 05:42:20;;;;;;;24.53;15.00;;;4.40;99.90;;;;;;5088298;28;20478;-72
2021/01/03 05:45:10;;;;;;;23.33;14.57;;;4.50;99.90;;;;;;5089222;28;20414;-72
2021/01/03 05:47:53;;;;;;;22.47;14.43;;;4.40;99.90;;;;;;5060095;28;20505;-72
2021/01/03 05:50:22;;;;;;;22.63;14.97;;;4.50;99.90;;;;;;5088985;28;20506;-72
2021/01/03 05:52:55;;;;;;;21.43;14.23;;;4.70;99.90;;;;;;5089326;28;20761;-72
2021/01/03 05:55:27;;;;;;;19.27;14.30;;;4.30;99.90;;;;;;5071450;28;20494;-72
2021/01/03 05:58:30;;;;;;;22.60;13.90;;;4.30;99.90;;;;;;5088292;28;20779;-73
2021/01/03 06:01:19;;;;;;;16.73;12.03;;;4.50;99.90;;;;;;5089407;28;20522;-72
2021/01/03 06:04:03;;;;;;;19.87;13.47;;;4.40;99.90;;;;;;5087458;28;20415;-72
2021/01/03 06:06:36;;;;;;;18.97;12.50;;;4.50;99.90;;;;;;5088149;28;20418;-72
2021/01/03 06:09:03;;;;;;;20.43;12.50;;;4.50;99.90;;;;;;5089098;28;20402;-72
2021/01/03 06:11:28;;;;;;;19.37;11.87;;;4.30;99.90;;;;;;5071025;28;20453;-72
2021/01/03 06:13:58;;;;;;;18.30;11.80;;;4.60;99.90;;;;;;5088610;28;20438;-73
2021/01/03 06:16:40;;;;;;;18.80;12.10;;;4.50;99.90;;;;;;5089163;28;20223;-72
2021/01/03 06:19:37;;;;;;;18.53;11.60;;;4.20;99.90;;;;;;5089002;28;20434;-72
2021/01/03 06:22:18;;;;;;;16.80;10.63;;;4.40;99.90;;;;;;5083040;28;20540;-72
2021/01/03 06:24:46;;;;;;;18.50;11.60;;;4.20;99.90;;;;;;5088438;28;20425;-72
2021/01/03 06:27:24;;;;;;;17.60;11.47;;;4.30;99.90;;;;;;5070816;28;20472;-72
2021/01/03 06:30:06;;;;;;;14.50;10.00;;;4.40;99.90;;;;;;5088713;28;20501;-72
2021/01/03 06:32:47;;;;;;;16.40;10.50;;;4.40;99.90;;;;;;5088025;28;20787;-72
2021/01/03 06:35:30;;;;;;;16.13;10.37;;;4.60;99.90;;;;;;5087154;28;20472;-72
2021/01/03 06:38:14;;;;;;;17.13;10.53;;;4.70;99.90;;;;;;5070608;28;20688;-72
2021/01/03 06:40:50;;;;;;;14.07;9.33;;;4.40;99.90;;;;;;5087407;28;20555;-72
2021/01/03 06:43:35;;;;;;;14.40;9.37;;;4.70;99.90;;;;;;5088092;28;20434;-72
2021/01/03 06:46:42;;;;;;;12.97;10.03;;;4.40;99.90;;;;;;5076645;28;20402;-72
2021/01/03 06:49:26;;;;;;;12.67;9.33;;;4.50;99.90;;;;;;5086781;28;20525;-72
2021/01/03 06:51:55;;;;;;;12.40;8.53;;;4.60;99.90;;;;;;5087234;28;20414;-72
2021/01/03 06:54:39;;;;;;;12.03;8.97;;;4.40;99.90;;;;;;5087930;28;20426;-72
2021/01/03 06:57:26;;;;;;;14.43;9.20;;;4.60;99.90;;;;;;5084719;28;20468;-72
2021/01/03 07:00:14;;;;;;;12.20;8.57;;;4.50;99.90;;;;;;5082970;28;20480;-72
2021/01/03 07:03:18;;;;;;;10.30;8.63;;;4.40;99.90;;;;;;5080906;28;20549;-72
2021/01/03 07:06:05;;;;;;;11.27;8.83;;;4.60;99.90;;;;;;5068640;28;20799;-72
2021/01/03 07:08:52;;;;;;;10.97;8.10;;;4.40;99.90;;;;;;5070402;28;20419;-72
2021/01/03 07:11:41;;;;;;;10.77;8.63;;;4.40;99.90;;;;;;5086999;28;20750;-72
2021/01/03 07:14:21;;;;;;;10.77;7.97;;;4.20;99.90;;;;;;5087322;28;20422;-72
2021/01/03 07:17:04;;;;;;;14.03;8.90;;;4.20;99.90;;;;;;5088249;28;20426;-72
2021/01/03 07:19:36;;;;;;;14.67;8.70;;;4.30;99.90;;;;;;5069950;28;20414;-72
2021/01/03 07:22:15;;;;;;;11.33;8.23;;;4.30;99.90;;;;;;5088139;28;20505;-72
2021/01/03 07:24:50;;;;;;;10.00;7.60;;;4.20;99.90;;;;;;5087779;28;20417;-72
2021/01/03 07:27:20;;;;;;;11.20;8.27;;;4.10;99.90;;;;;;5088360;28;20936;-72
2021/01/03 07:29:57;;;;;;;10.07;7.60;;;4.50;99.90;;;;;;5088217;28;20869;-72
2021/01/03 07:32:37;;;;;;;12.50;8.80;;;4.30;99.90;;;;;;5052827;28;21129;-72
2021/01/03 07:35:21;;;;;;;11.80;7.60;;;4.40;99.90;;;;;;5086183;28;20552;-72
2021/01/03 07:37:51;;;;;;;9.40;7.53;;;4.30;99.90;;;;;;5088235;28;20459;-72
2021/01/03 07:40:24;;;;;;;9.63;7.83;;;4.20;99.90;;;;;;5069448;28;20466;-72
2021/01/03 07:42:54;;;;;;;9.40;7.27;;;4.40;99.90;;;;;;5069306;28;20466;-71
2021/01/03 07:45:39;;;;;;;10.43;8.10;;;4.50;99.90;;;;;;5088748;28;20432;-72
2021/01/03 07:48:38;;;;;;;9.10;7.60;;;4.30;99.90;;;;;;5087035;28;20418;-72
2021/01/03 07:51:09;;;;;;;10.70;7.80;;;4.60;99.90;;;;;;5077158;28;20455;-72
2021/01/03 07:53:37;;;;;;;8.67;7.13;;;4.50;99.90;;;;;;5067925;28;20414;-72
2021/01/03 07:56:25;;;;;;;12.97;8.20;;;4.50;99.90;;;;;;5086518;28;20414;-72
2021/01/03 07:58:57;;;;;;;10.73;7.83;;;4.60;99.90;;;;;;5068241;28;20483;-72
2021/01/03 08:01:29;;;;;;;8.93;7.83;;;4.50;99.90;;;;;;5085476;28;20464;-72
2021/01/03 08:03:55;;;;;;;9.33;7.43;;;4.40;99.90;;;;;;5084366;28;20764;-72
2021/01/03 08:06:21;;;;;;;10.00;7.67;;;4.30;99.90;;;;;;5083716;28;20572;-72
2021/01/03 08:08:56;;;;;;;9.10;7.67;;;4.40;99.90;;;;;;5072773;28;20174;-72
2021/01/03 08:11:38;;;;;;;8.97;7.20;;;4.50;99.90;;;;;;5082195;28;20654;-72
2021/01/03 08:14:08;;;;;;;10.00;8.10;;;4.60;99.90;;;;;;5084841;28;20478;-71
2021/01/03 08:16:38;;;;;;;12.83;8.40;;;4.40;99.90;;;;;;5076926;28;20452;-71
2021/01/03 08:19:05;;;;;;;8.33;7.03;;;4.50;99.90;;;;;;5091423;28;20895;-72
2021/01/03 08:21:39;;;;;;;9.87;7.47;;;4.60;99.90;;;;;;5077725;28;20449;-72
2021/01/03 08:24:12;;;;;;;8.90;8.00;;;4.50;99.90;;;;;;5089386;28;20410;-72
2021/01/03 08:26:47;;;;;;;8.90;6.70;;;4.50;99.90;;;;;;5087566;28;20414;-71
2021/01/03 08:29:24;;;;;;;7.87;6.93;;;4.40;99.90;;;;;;5088716;28;20406;-71
2021/01/03 08:31:57;;;;;;;8.03;6.90;;;4.30;99.90;;;;;;5087478;28;20419;-72
2021/01/03 08:34:33;;;;;;;8.67;7.10;;;4.10;99.90;;;;;;5070744;28;20423;-72
2021/01/03 08:36:59;;;;;;;7.80;7.00;;;4.30;99.90;;;;;;5088408;28;20426;-71
2021/01/03 08:39:29;;;;;;;9.20;7.00;;;4.40;99.90;;;;;;5072116;28;20449;-72
2021/01/03 08:42:05;;;;;;;7.57;6.37;;;4.40;99.90;;;;;;5090145;28;20462;-71
2021/01/03 08:44:38;;;;;;;7.90;6.40;;;4.40;99.90;;;;;;5072168;28;21106;-72
2021/01/03 08:47:08;;;;;;;8.77;7.10;;;4.30;99.90;;;;;;5088761;28;20916;-72
2021/01/03 08:49:34;;;;;;;9.03;6.83;;;4.30;99.90;;;;;;5079343;28;20442;-72
2021/01/03 08:52:20;;;;;;;7.87;6.50;;;4.50;99.90;;;;;;5062523;28;20492;-72
2021/01/03 08:55:02;;;;;;;7.60;6.80;;;4.50;99.90;;;;;;5088187;28;20441;-72
2021/01/03 08:57:30;;;;;;;7.07;6.37;;;4.60;99.90;;;;;;5089043;28;20497;-72
2021/01/03 08:59:57;;;;;;;7.50;5.97;;;4.50;99.90;;;;;;5074914;28;20450;-72
2021/01/03 09:02:28;;;;;;;7.00;6.30;;;4.60;99.90;;;;;;5088583;28;20466;-72
2021/01/03 09:04:59;;;;;;;6.00;5.20;;;4.50;99.90;;;;;;5087588;28;20422;-72
2021/01/03 09:07:29;;;;;;;6.00;5.40;;;4.60;99.90;;;;;;5090983;28;20455;-71
2021/01/03 09:09:54;;;;;;;6.20;5.13;;;4.40;99.90;;;;;;5073381;28;20418;-71
2021/01/03 09:12:44;;;;;;;7.57;6.50;;;4.60;99.90;;;;;;5090596;28;20436;-71
2021/01/03 09:15:21;;;;;;;9.20;6.03;;;4.30;99.90;;;;;;5076291;28;20238;-71
2021/01/03 09:18:09;;;;;;;8.63;5.87;;;4.70;99.90;;;;;;5088574;28;20757;-71
2021/01/03 09:20:43;;;;;;;8.60;5.63;;;4.50;99.90;;;;;;5088348;28;20822;-72
2021/01/03 09:23:18;;;;;;;8.30;6.07;;;4.40;99.90;;;;;;5089067;28;20424;-72
2021/01/03 09:25:54;;;;;;;8.00;5.77;;;4.60;99.90;;;;;;5088291;28;20418;-72
2021/01/03 09:28:25;;;;;;;6.20;5.47;;;4.60;99.90;;;;;;5071415;28;20414;-71
2021/01/03 09:31:07;;;;;;;7.93;5.90;;;4.30;99.90;;;;;;5088018;28;20418;-72
2021/01/03 09:33:35;;;;;;;8.10;5.80;;;4.60;99.90;;;;;;5086928;28;20418;-72
2021/01/03 09:36:06;;;;;;;8.30;5.87;;;4.50;99.90;;;;;;5087062;28;20793;-72
2021/01/03 09:38:31;;;;;;;10.50;6.80;;;4.30;99.90;;;;;;5086676;28;20505;-71
2021/01/03 09:41:31;;;;;;;11.70;6.40;;;4.20;99.90;;;;;;5087596;28;20533;-72
2021/01/03 09:44:26;;;;;;;8.13;6.10;;;4.10;99.90;;;;;;5084925;28;20196;-72
2021/01/03 09:47:14;;;;;;;8.60;6.63;;;4.50;99.90;;;;;;5057586;28;20416;-72
2021/01/03 09:49:44;;;;;;;9.97;5.97;;;4.10;99.90;;;;;;5077435;28;20583;-71
2021/01/03 09:52:35;;;;;;;8.07;6.20;;;4.30;99.90;;;;;;5079858;28;20524;-71
2021/01/03 09:55:12;;;;;;;6.90;5.87;;;4.30;99.90;;;;;;5080637;28;20797;-71
2021/01/03 09:57:43;;;;;;;7.33;6.13;;;4.60;99.90;;;;;;5081110;28;20422;-71
2021/01/03 10:00:19;;;;;;;8.60;7.07;;;4.30;99.90;;;;;;5069754;28;20741;-71
2021/01/03 10:02:45;;;;;;;8.87;7.30;;;4.10;99.90;;;;;;5086526;28;21018;-72
2021/01/03 10:05:25;;;;;;;8.20;6.80;;;4.20;99.90;;;;;;5064853;28;20468;-72
2021/01/03 10:08:07;;;;;;;8.27;6.03;;;4.10;99.90;;;;;;5083473;28;20433;-72
2021/01/03 10:10:43;;;;;;;10.83;7.03;;;4.30;99.90;;;;;;5078271;28;20430;-72
2021/01/03 10:13:10;;;;;;;7.63;5.73;;;4.40;99.90;;;;;;5082885;28;20509;-72
2021/01/03 10:15:36;;;;;;;7.93;6.00;;;4.20;99.90;;;;;;5079472;28;20932;-72
2021/01/03 10:18:12;;;;;;;8.30;5.77;;;4.30;99.90;;;;;;5078211;28;20423;-71
2021/01/03 10:20:50;;;;;;;7.47;5.30;;;4.50;99.90;;;;;;5084410;28;20417;-71
2021/01/03 10:23:34;;;;;;;6.17;5.30;;;4.20;99.90;;;;;;5089134;28;20410;-72
2021/01/03 10:26:04;;;;;;;6.13;5.10;;;4.30;99.90;;;;;;5088439;28;20446;-72
2021/01/03 10:28:31;;;;;;;7.73;6.03;;;4.50;99.90;;;;;;5071345;28;20422;-71
2021/01/03 10:30:57;;;;;;;7.13;5.57;;;4.50;99.90;;;;;;5089061;28;20417;-71
2021/01/03 10:33:23;;;;;;;7.80;5.50;;;4.40;99.90;;;;;;5088279;28;20418;-71
2021/01/03 10:35:49;;;;;;;6.77;5.47;;;4.60;99.90;;;;;;5086259;28;20785;-71
2021/01/03 10:38:15;;;;;;;9.37;7.03;;;4.30;99.90;;;;;;5086959;28;20180;-71
2021/01/03 10:40:40;;;;;;;6.87;5.23;;;4.40;99.90;;;;;;5088385;28;20507;-71
2021/01/03 10:43:06;;;;;;;7.93;6.23;;;4.50;99.90;;;;;;5068336;28;20432;-71
2021/01/03 10:45:33;;;;;;;6.67;5.03;;;4.50;99.90;;;;;;5073979;28;20636;-72
2021/01/03 10:47:58;;;;;;;8.17;5.77;;;4.70;99.90;;;;;;5082397;28;20422;-72
2021/01/03 10:50:24;;;;;;;7.63;5.37;;;4.50;99.90;;;;;;5060356;28;21027;-71
2021/01/03 10:52:50;;;;;;;5.83;4.70;;;4.60;99.90;;;;;;5038171;28;20360;-71
2021/01/03 10:55:20;;;;;;;6.80;5.30;;;4.50;99.90;;;;;;5075638;28;20459;-71
2021/01/03 10:57:45;;;;;;;9.73;5.50;;;4.80;99.90;;;;;;5077101;28;20940;-71
2021/01/03 11:00:13;;;;;;;7.60;5.57;;;4.60;99.90;;;;;;5076671;28;20469;-72
2021/01/03 11:02:39;;;;;;;6.87;5.67;;;4.70;99.90;;;;;;5076291;28;20221;-71
2021/01/03 11:05:06;;;;;;;6.60;5.20;;;4.70;99.90;;;;;;5052713;28;21001;-71
2021/01/03 11:07:34;;;;;;;5.90;5.00;;;4.70;99.90;;;;;;5080525;28;20184;-70
2021/01/03 11:10:00;;;;;;;5.47;4.97;;;4.70;99.90;;;;;;5055148;28;20430;-71
2021/01/03 11:12:25;;;;;;;7.00;5.03;;;4.50;99.90;;;;;;5079490;28;20550;-71
2021/01/03 11:14:51;;;;;;;6.70;5.37;;;4.70;99.90;;;;;;5044870;28;20513;-71
2021/01/03 11:17:17;;;;;;;7.37;5.07;;;4.70;99.90;;;;;;5086181;28;20219;-71
2021/01/03 11:19:44;;;;;;;7.23;5.20;;;4.50;99.90;;;;;;5085721;28;20261;-72
2021/01/03 11:22:16;;;;;;;6.03;4.63;;;4.50;99.90;;;;;;5077172;28;20462;-71
2021/01/03 11:24:42;;;;;;;6.93;5.17;;;4.60;99.90;;;;;;5074248;28;20478;-72
2021/01/03 11:27:14;;;;;;;6.57;4.97;;;4.60;99.90;;;;;;5077623;28;20418;-71
2021/01/03 11:29:40;;;;;;;8.40;5.23;;;4.70;99.90;;;;;;5076368;28;20501;-72
2021/01/03 11:32:19;;;;;;;5.73;5.00;;;4.60;99.90;;;;;;5075351;28;20529;-72
2021/01/03 11:34:45;;;;;;;5.07;4.53;;;4.50;99.90;;;;;;5077250;28;20430;-72
2021/01/03 11:37:14;;;;;;;6.60;5.63;;;4.50;99.90;;;;;;5075143;28;20929;-71
2021/01/03 11:39:40;;;;;;;6.80;5.27;;;4.60;99.90;;;;;;5076810;28;20227;-71
2021/01/03 11:42:13;;;;;;;7.43;5.50;;;4.40;99.90;;;;;;5077536;28;20458;-72
2021/01/03 11:44:43;;;;;;;6.70;5.57;;;4.70;99.90;;;;;;5075921;28;20818;-72
2021/01/03 11:47:16;;;;;;;5.30;4.80;;;4.70;99.90;;;;;;5076739;28;20453;-71
2021/01/03 11:49:42;;;;;;;6.00;4.60;;;4.80;99.90;;;;;;5081053;28;20426;-72
2021/01/03 11:52:08;;;;;;;6.10;5.50;;;4.80;99.90;;;;;;5092732;28;20418;-72
2021/01/03 11:54:36;;;;;;;6.67;5.50;;;4.80;99.90;;;;;;5090948;28;20422;-72
2021/01/03 11:57:03;;;;;;;8.03;5.90;;;5.00;99.90;;;;;;5088293;28;20441;-72
2021/01/03 11:59:29;;;;;;;7.87;6.27;;;4.70;99.90;;;;;;5084216;28;20829;-72
2021/01/03 12:02:04;;;;;;;8.77;6.37;;;4.80;99.90;;;;;;5084038;28;20455;-72
2021/01/03 12:04:30;;;;;;;6.60;5.47;;;4.70;99.90;;;;;;5078799;28;20453;-72
2021/01/03 12:07:07;;;;;;;8.53;6.50;;;4.60;99.90;;;;;;5091536;28;20415;-72
2021/01/03 12:09:33;;;;;;;8.80;6.10;;;4.60;99.90;;;;;;5074047;28;20810;-72
2021/01/03 12:12:02;;;;;;;7.57;6.00;;;4.40;99.90;;;;;;5081071;28;20513;-72
2021/01/03 12:14:28;;;;;;;8.57;6.87;;;4.60;99.90;;;;;;5084226;28;20414;-72
2021/01/03 12:17:03;;;;;;;8.37;6.23;;;4.70;99.90;;;;;;5092730;28;20469;-72
2021/01/03 12:19:29;;;;;;;7.60;6.00;;;4.40;99.90;;;;;;5091210;28;20457;-71
2021/01/03 12:21:56;;;;;;;7.10;5.87;;;4.60;99.90;;;;;;5092346;28;20454;-72
2021/01/03 12:24:22;;;;;;;7.07;5.80;;;4.40;99.90;;;;;;5090004;28;20414;-71
2021/01/03 12:26:48;;;;;;;8.43;5.87;;;4.40;99.90;;;;;;5091249;28;20505;-71
2021/01/03 12:29:15;;;;;;;8.33;5.93;;;4.40;99.90;;;;;;5091585;28;20476;-72
2021/01/03 12:31:50;;;;;;;7.57;6.30;;;4.50;99.90;;;;;;5090744;28;20212;-72
2021/01/03 12:34:18;;;;;;;9.50;5.97;;;4.50;99.90;;;;;;5091512;28;20936;-72
2021/01/03 12:36:44;;;;;;;10.77;6.83;;;4.70;99.90;;;;;;5090462;28;21374;-72
2021/01/03 12:39:11;;;;;;;8.80;6.70;;;4.80;99.90;;;;;;5092005;28;20426;-71
2021/01/03 12:41:37;;;;;;;9.93;6.90;;;4.70;99.90;;;;;;5073161;28;20312;-71
2021/01/03 12:44:04;;;;;;;7.77;6.10;;;4.60;99.90;;;;;;5088358;28;20506;-72
2021/01/03 12:46:31;;;;;;;7.97;6.00;;;4.40;99.90;;;;;;5073748;28;20226;-72
2021/01/03 12:48:57;;;;;;;8.60;6.97;;;4.70;99.90;;;;;;5091567;28;20415;-71
2021/01/03 12:51:24;;;;;;;8.30;6.60;;;4.60;99.90;;;;;;5086653;28;20419;-71
2021/01/03 12:53:50;;;;;;;9.90;6.50;;;4.80;99.90;;;;;;5086989;28;20454;-71
2021/01/03 12:56:17;;;;;;;10.20;7.13;;;4.80;99.90;;;;;;5091592;28;20426;-72
2021/01/03 12:58:44;;;;;;;9.30;6.70;;;4.70;99.90;;;;;;5077295;28;20426;-71
2021/01/03 13:01:10;;;;;;;9.00;7.00;;;4.80;99.90;;;;;;5089074;28;20625;-71
2021/01/03 13:03:35;;;;;;;8.60;6.83;;;4.80;99.90;;;;;;5090811;28;20509;-71
2021/01/03 13:06:02;;;;;;;9.20;6.70;;;4.80;99.90;;;;;;5089719;28;20433;-72
2021/01/03 13:08:28;;;;;;;11.80;7.10;;;4.80;99.90;;;;;;5091576;28;20431;-72
2021/01/03 13:10:54;;;;;;;10.77;8.17;;;4.90;99.90;;;;;;5089306;28;20422;-72